createdAt,value
2017-09-23T00:00:00.044Z,0.00
2017-09-23T00:01:00.044Z,0.00
2017-09-23T00:02:00.044Z,0.00
2017-09-23T00:03:00.044Z,0.00
2017-09-23T00:04:00.044Z,0.00
2017-09-23T00:05:00.042Z,0.00
2017-09-23T00:06:00.040Z,0.00
2017-09-23T00:07:00.043Z,0.00
2017-09-23T00:08:00.042Z,0.00
2017-09-23T00:09:00.041Z,0.00
2017-09-23T00:10:00.041Z,0.00
2017-09-23T00:11:00.040Z,0.00
2017-09-23T00:12:00.040Z,0.00
2017-09-23T00:13:00.039Z,0.00
2017-09-23T00:14:00.038Z,0.00
2017-09-23T00:15:00.038Z,0.00
2017-09-23T00:16:00.040Z,0.00
2017-09-23T00:17:00.035Z,0.00
2017-09-23T00:18:00.037Z,0.00
2017-09-23T00:19:00.037Z,0.00
2017-09-23T00:20:00.036Z,0.00
2017-09-23T00:21:00.035Z,0.00
2017-09-23T00:22:00.035Z,0.00
2017-09-23T00:23:00.036Z,0.00
2017-09-23T00:24:00.033Z,0.00
2017-09-23T00:25:00.032Z,0.00
2017-09-23T00:26:00.032Z,0.00
2017-09-23T00:27:00.030Z,0.00
2017-09-23T00:28:00.031Z,0.00
2017-09-23T00:29:00.030Z,0.00
2017-09-23T00:30:00.030Z,0.00
2017-09-23T00:31:00.030Z,0.00
2017-09-23T00:32:00.030Z,0.00
2017-09-23T00:33:00.027Z,0.00
2017-09-23T00:34:00.027Z,0.00
2017-09-23T00:35:00.028Z,0.00
2017-09-23T00:36:00.028Z,0.00
2017-09-23T01:22:44.495Z,0.00
2017-09-23T01:23:44.494Z,0.00
2017-09-23T01:24:44.493Z,0.00
2017-09-23T01:25:44.492Z,0.00
2017-09-23T01:26:44.492Z,0.00
2017-09-23T01:27:44.491Z,0.00
2017-09-23T01:28:44.492Z,0.00
2017-09-23T01:29:44.488Z,0.00
2017-09-23T01:30:44.489Z,0.00
2017-09-23T01:31:44.487Z,0.00
2017-09-23T01:32:44.486Z,0.00
2017-09-23T01:33:44.486Z,0.00
2017-09-23T01:34:44.485Z,0.00
2017-09-23T01:35:44.486Z,0.00
2017-09-23T01:36:44.484Z,0.00
2017-09-23T01:37:44.488Z,0.00
2017-09-23T01:38:44.483Z,0.00
2017-09-23T01:39:44.487Z,0.00
2017-09-23T01:40:44.479Z,0.00
2017-09-23T01:41:44.478Z,0.00
2017-09-23T01:42:44.478Z,0.00
2017-09-23T01:43:44.477Z,0.00
2017-09-23T01:44:44.475Z,0.00
2017-09-23T01:45:44.474Z,0.00
2017-09-23T01:46:44.474Z,0.00
2017-09-23T01:47:44.475Z,0.00
2017-09-23T01:48:44.472Z,0.00
2017-09-23T01:49:44.471Z,0.00
2017-09-23T01:50:44.472Z,0.00
2017-09-23T01:51:44.471Z,0.00
2017-09-23T01:52:44.471Z,0.00
2017-09-23T01:53:44.469Z,0.00
2017-09-23T01:54:44.467Z,0.00
2017-09-23T01:55:44.467Z,0.00
2017-09-23T01:56:44.466Z,0.00
2017-09-23T01:57:44.464Z,0.00
2017-09-23T01:58:44.464Z,0.00
2017-09-23T01:59:44.463Z,0.00
2017-09-23T02:00:44.462Z,0.00
2017-09-23T02:01:44.464Z,0.00
2017-09-23T02:02:44.460Z,0.00
2017-09-23T02:03:44.459Z,0.00
2017-09-23T02:04:44.458Z,0.00
2017-09-23T02:05:44.457Z,0.00
2017-09-23T02:06:44.457Z,0.00
2017-09-23T02:07:44.456Z,0.00
2017-09-23T02:08:44.454Z,0.00
2017-09-23T02:09:44.453Z,0.00
2017-09-23T02:10:44.453Z,0.00
2017-09-23T02:11:44.453Z,0.00
2017-09-23T02:12:44.450Z,0.00
2017-09-23T02:13:44.451Z,0.00
2017-09-23T02:14:44.453Z,0.00
2017-09-23T02:15:44.449Z,0.00
2017-09-23T02:16:44.447Z,0.00
2017-09-23T02:17:44.447Z,0.00
2017-09-23T02:18:44.445Z,0.00
2017-09-23T02:19:44.445Z,0.00
2017-09-23T02:20:44.443Z,0.00
2017-09-23T02:21:44.448Z,0.00
2017-09-23T02:22:44.441Z,0.00
2017-09-23T02:23:44.441Z,0.00
2017-09-23T02:24:44.438Z,0.00
2017-09-23T02:25:44.438Z,0.00
2017-09-23T02:26:44.437Z,0.00
2017-09-23T02:27:44.436Z,0.00
2017-09-23T02:28:44.435Z,0.00
2017-09-23T02:29:44.434Z,0.00
2017-09-23T02:30:44.438Z,0.00
2017-09-23T02:31:44.435Z,0.00
2017-09-23T02:32:44.430Z,0.00
2017-09-23T02:33:44.430Z,0.00
2017-09-23T02:34:44.430Z,0.00
2017-09-23T02:35:44.430Z,0.00
2017-09-23T02:36:44.427Z,0.00
2017-09-23T02:37:44.426Z,0.00
2017-09-23T02:38:44.425Z,0.00
2017-09-23T02:39:44.427Z,0.00
2017-09-23T02:40:44.421Z,0.00
2017-09-23T02:41:44.423Z,0.00
2017-09-23T02:42:44.420Z,0.00
2017-09-23T02:43:44.421Z,0.00
2017-09-23T02:44:44.418Z,0.00
2017-09-23T02:45:44.417Z,0.00
2017-09-23T02:46:44.417Z,0.00
2017-09-23T02:47:44.415Z,0.00
2017-09-23T02:48:44.413Z,0.00
2017-09-23T02:49:44.414Z,0.00
2017-09-23T02:50:44.443Z,0.00
2017-09-23T02:51:44.411Z,0.00
2017-09-23T02:52:44.410Z,0.00
2017-09-23T02:53:44.410Z,0.00
2017-09-23T02:54:44.408Z,0.00
2017-09-23T02:55:44.407Z,0.00
2017-09-23T02:56:44.405Z,0.00
2017-09-23T02:57:44.405Z,0.00
2017-09-23T02:58:44.405Z,0.00
2017-09-23T02:59:44.402Z,0.00
2017-09-23T03:00:44.399Z,0.00
2017-09-23T03:01:44.399Z,0.00
2017-09-23T03:02:44.399Z,0.00
2017-09-23T03:03:44.397Z,0.00
2017-09-23T03:04:44.397Z,0.00
2017-09-23T03:05:44.399Z,0.00
2017-09-23T03:06:44.394Z,0.00
2017-09-23T03:07:44.393Z,0.00
2017-09-23T03:08:44.402Z,0.00
2017-09-23T03:09:44.391Z,0.00
2017-09-23T03:10:44.390Z,0.00
2017-09-23T03:11:44.395Z,0.00
2017-09-23T03:12:44.386Z,0.00
2017-09-23T03:13:44.386Z,0.00
2017-09-23T03:14:44.386Z,0.00
2017-09-23T03:15:44.385Z,0.00
2017-09-23T03:16:44.383Z,0.00
2017-09-23T03:17:44.383Z,0.00
2017-09-23T03:18:44.380Z,0.00
2017-09-23T03:19:44.380Z,0.00
2017-09-23T03:20:44.378Z,0.00
2017-09-23T03:21:44.377Z,0.00
2017-09-23T03:22:44.376Z,0.00
2017-09-23T03:23:44.375Z,0.00
2017-09-23T03:24:44.374Z,0.00
2017-09-23T03:25:44.373Z,0.00
2017-09-23T03:26:44.372Z,0.00
2017-09-23T03:27:44.371Z,0.00
2017-09-23T03:28:44.369Z,0.00
2017-09-23T03:29:44.368Z,0.00
2017-09-23T03:30:44.367Z,0.00
2017-09-23T03:31:44.366Z,0.00
2017-09-23T03:32:44.364Z,0.00
2017-09-23T03:33:44.363Z,0.00
2017-09-23T03:34:44.362Z,0.00
2017-09-23T03:35:44.361Z,0.00
2017-09-23T03:36:44.359Z,0.00
2017-09-23T03:37:44.363Z,0.00
2017-09-23T03:38:44.359Z,0.00
2017-09-23T03:39:44.357Z,0.00
2017-09-23T03:40:44.354Z,0.00
2017-09-23T03:41:44.354Z,0.00
2017-09-23T03:42:44.352Z,0.00
2017-09-23T03:43:44.353Z,0.00
2017-09-23T03:44:44.349Z,0.00
2017-09-23T03:45:44.349Z,0.00
2017-09-23T03:46:44.348Z,0.00
2017-09-23T03:47:44.347Z,0.00
2017-09-23T03:48:44.345Z,0.00
2017-09-23T03:49:44.344Z,0.00
2017-09-23T03:50:44.343Z,0.00
2017-09-23T03:51:44.344Z,0.00
2017-09-23T03:52:44.342Z,0.00
2017-09-23T03:53:44.340Z,0.00
2017-09-23T03:54:44.338Z,0.00
2017-09-23T03:55:44.340Z,0.00
2017-09-23T03:56:44.335Z,0.00
2017-09-23T03:57:44.335Z,0.00
2017-09-23T03:58:44.333Z,0.00
2017-09-23T03:59:44.332Z,0.00
2017-09-23T04:00:44.331Z,0.00
2017-09-23T04:01:44.329Z,0.00
2017-09-23T04:02:44.330Z,0.00
2017-09-23T04:03:44.328Z,0.00
2017-09-23T04:04:44.326Z,0.00
2017-09-23T04:05:44.325Z,0.00
2017-09-23T04:06:44.324Z,0.00
2017-09-23T04:07:44.323Z,0.00
2017-09-23T04:08:44.320Z,0.00
2017-09-23T04:09:44.318Z,0.00
2017-09-23T04:10:44.318Z,0.00
2017-09-23T04:11:44.317Z,0.00
2017-09-23T04:12:44.320Z,0.00
2017-09-23T04:13:44.320Z,0.00
2017-09-23T04:14:44.312Z,0.00
2017-09-23T04:15:44.312Z,0.00
2017-09-23T04:16:44.308Z,0.00
2017-09-23T04:17:44.309Z,0.00
2017-09-23T04:18:44.307Z,0.00
2017-09-23T04:19:44.307Z,0.00
2017-09-23T04:20:44.304Z,0.00
2017-09-23T04:21:44.303Z,0.00
2017-09-23T04:22:44.301Z,0.00
2017-09-23T04:23:44.299Z,0.00
2017-09-23T04:24:44.298Z,0.00
2017-09-23T04:25:44.297Z,0.00
2017-09-23T04:26:44.296Z,0.00
2017-09-23T04:27:44.297Z,0.00
2017-09-23T04:28:44.293Z,0.00
2017-09-23T04:29:44.291Z,0.00
2017-09-23T04:30:44.289Z,0.00
2017-09-23T04:31:44.288Z,0.00
2017-09-23T04:32:44.288Z,0.00
2017-09-23T04:33:44.285Z,0.00
2017-09-23T04:34:44.283Z,0.00
2017-09-23T04:35:44.284Z,0.00
2017-09-23T04:36:44.280Z,0.00
2017-09-23T04:37:44.278Z,0.00
2017-09-23T04:38:44.278Z,0.00
2017-09-23T04:39:44.276Z,0.00
2017-09-23T04:40:44.275Z,0.00
2017-09-23T04:41:44.274Z,0.00
2017-09-23T04:42:44.271Z,0.00
2017-09-23T04:43:44.274Z,0.00
2017-09-23T04:44:44.267Z,0.00
2017-09-23T04:45:44.267Z,0.00
2017-09-23T04:46:44.265Z,0.00
2017-09-23T04:47:44.265Z,0.00
2017-09-23T04:48:44.262Z,0.00
2017-09-23T04:49:44.260Z,0.00
2017-09-23T04:50:44.262Z,0.00
2017-09-23T04:51:44.261Z,0.00
2017-09-23T04:52:44.255Z,0.00
2017-09-23T04:53:44.253Z,4.00
2017-09-23T04:54:44.254Z,4.00
2017-09-23T04:55:44.252Z,0.00
2017-09-23T04:56:44.247Z,4.00
2017-09-23T04:57:44.248Z,4.00
2017-09-23T04:58:44.246Z,4.00
2017-09-23T04:59:44.244Z,4.00
2017-09-23T05:00:44.241Z,8.00
2017-09-23T05:01:44.242Z,8.00
2017-09-23T05:02:44.239Z,8.00
2017-09-23T05:03:44.238Z,12.00
2017-09-23T05:04:44.236Z,12.00
2017-09-23T05:05:44.235Z,12.00
2017-09-23T05:06:44.234Z,16.00
2017-09-23T05:07:44.231Z,16.00
2017-09-23T05:08:44.229Z,16.00
2017-09-23T05:09:44.229Z,16.00
2017-09-23T05:10:44.227Z,20.00
2017-09-23T05:11:44.224Z,24.00
2017-09-23T05:12:44.221Z,24.00
2017-09-23T05:13:44.220Z,28.00
2017-09-23T05:14:44.219Z,32.00
2017-09-23T05:15:44.219Z,32.00
2017-09-23T05:16:44.215Z,36.00
2017-09-23T05:17:44.212Z,40.00
2017-09-23T05:18:44.212Z,44.00
2017-09-23T05:19:44.210Z,48.00
2017-09-23T05:20:44.207Z,52.00
2017-09-23T05:21:44.205Z,60.00
2017-09-23T05:22:44.204Z,68.00
2017-09-23T05:23:44.205Z,72.00
2017-09-23T05:24:44.201Z,80.00
2017-09-23T05:25:44.199Z,88.00
2017-09-23T05:26:44.199Z,88.00
2017-09-23T05:27:44.195Z,96.00
2017-09-23T05:28:44.192Z,100.00
2017-09-23T05:29:44.193Z,104.00
2017-09-23T05:30:44.191Z,108.00
2017-09-23T05:31:44.187Z,116.00
2017-09-23T05:32:44.185Z,124.00
2017-09-23T05:33:44.184Z,132.00
2017-09-23T05:34:44.182Z,124.00
2017-09-23T05:35:44.180Z,132.00
2017-09-23T05:36:44.178Z,136.00
2017-09-23T05:37:44.175Z,144.00
2017-09-23T05:38:44.174Z,156.00
2017-09-23T05:39:44.172Z,156.00
2017-09-23T05:40:44.170Z,160.00
2017-09-23T05:41:44.169Z,184.00
2017-09-23T05:42:44.166Z,192.00
2017-09-23T05:43:44.166Z,220.00
2017-09-23T05:44:44.161Z,220.00
2017-09-23T05:45:44.160Z,252.00
2017-09-23T05:46:44.158Z,276.00
2017-09-23T05:47:44.158Z,304.00
2017-09-23T05:48:44.154Z,324.00
2017-09-23T05:49:44.152Z,340.00
2017-09-23T05:50:44.154Z,356.00
2017-09-23T05:51:44.150Z,368.00
2017-09-23T05:52:44.146Z,432.00
2017-09-23T05:53:44.144Z,432.00
2017-09-23T05:54:44.143Z,472.00
2017-09-23T05:55:44.141Z,472.00
2017-09-23T05:56:44.139Z,504.00
2017-09-23T05:57:44.166Z,536.00
2017-09-23T05:58:44.136Z,564.00
2017-09-23T05:59:44.135Z,608.00
2017-09-23T06:00:44.132Z,620.00
2017-09-23T06:01:44.131Z,656.00
2017-09-23T06:02:44.129Z,712.00
2017-09-23T06:03:44.126Z,752.00
2017-09-23T06:04:44.124Z,824.00
2017-09-23T06:05:44.124Z,848.00
2017-09-23T06:06:44.120Z,924.00
2017-09-23T06:07:44.118Z,1020.00
2017-09-23T06:08:44.117Z,1160.00
2017-09-23T06:09:44.115Z,1212.00
2017-09-23T06:10:44.113Z,1192.00
2017-09-23T06:11:44.111Z,1068.00
2017-09-23T06:12:44.108Z,1136.00
2017-09-23T06:13:44.107Z,1180.00
2017-09-23T06:14:44.110Z,1304.00
2017-09-23T06:15:44.104Z,1508.00
2017-09-23T06:16:44.101Z,1632.00
2017-09-23T06:17:44.099Z,1728.00
2017-09-23T06:18:44.098Z,1900.00
2017-09-23T06:19:44.098Z,2080.00
2017-09-23T06:20:44.094Z,2244.00
2017-09-23T06:21:44.092Z,2684.00
2017-09-23T06:22:44.091Z,2992.00
2017-09-23T06:23:44.089Z,3004.00
2017-09-23T06:24:44.087Z,2924.00
2017-09-23T06:25:44.085Z,3108.00
2017-09-23T06:26:44.084Z,3380.00
2017-09-23T06:27:44.082Z,3280.00
2017-09-23T06:28:44.081Z,3356.00
2017-09-23T06:29:44.079Z,3376.00
2017-09-23T06:30:44.077Z,3428.00
2017-09-23T06:31:44.076Z,3436.00
2017-09-23T06:32:44.073Z,3492.00
2017-09-23T06:33:44.072Z,3532.00
2017-09-23T06:34:44.069Z,3608.00
2017-09-23T06:35:44.069Z,3680.00
2017-09-23T06:36:44.068Z,3760.00
2017-09-23T06:37:44.065Z,3864.00
2017-09-23T06:38:44.064Z,3940.00
2017-09-23T06:39:44.064Z,4004.00
2017-09-23T06:40:44.065Z,4108.00
2017-09-23T06:41:44.059Z,4192.00
2017-09-23T06:42:44.057Z,4296.00
2017-09-23T06:43:44.063Z,4420.00
2017-09-23T06:44:44.053Z,4476.00
2017-09-23T06:45:44.053Z,4600.00
2017-09-23T06:46:44.051Z,4508.00
2017-09-23T06:47:44.049Z,4628.00
2017-09-23T06:48:44.047Z,4780.00
2017-09-23T06:49:44.046Z,4672.00
2017-09-23T06:50:44.048Z,5004.00
2017-09-23T06:51:44.041Z,4960.00
2017-09-23T06:52:44.041Z,5124.00
2017-09-23T06:53:44.039Z,5156.00
2017-09-23T06:54:44.038Z,5216.00
2017-09-23T06:55:44.040Z,5248.00
2017-09-23T06:56:44.034Z,5216.00
2017-09-23T06:57:44.032Z,5316.00
2017-09-23T06:58:44.037Z,5340.00
2017-09-23T06:59:44.031Z,5360.00
2017-09-23T07:00:44.029Z,5332.00
2017-09-23T07:01:44.028Z,5364.00
2017-09-23T07:02:44.026Z,5400.00
2017-09-23T07:03:44.030Z,5420.00
2017-09-23T07:04:44.023Z,5564.00
2017-09-23T07:05:44.021Z,5668.00
2017-09-23T07:06:44.021Z,5724.00
2017-09-23T07:07:44.020Z,5692.00
2017-09-23T07:08:44.019Z,5744.00
2017-09-23T07:09:44.017Z,5808.00
2017-09-23T07:10:44.014Z,5836.00
2017-09-23T07:11:44.015Z,5940.00
2017-09-23T07:12:44.012Z,5956.00
2017-09-23T07:13:44.012Z,6040.00
2017-09-23T07:14:44.014Z,6108.00
2017-09-23T07:15:44.009Z,6156.00
2017-09-23T07:16:44.012Z,6188.00
2017-09-23T07:17:44.006Z,6228.00
2017-09-23T07:18:44.005Z,6360.00
2017-09-23T07:19:44.004Z,6500.00
2017-09-23T07:20:44.002Z,6700.00
2017-09-23T07:21:44.002Z,6856.00
2017-09-23T07:22:43.999Z,7048.00
2017-09-23T07:23:44.000Z,6988.00
2017-09-23T07:24:43.997Z,6864.00
2017-09-23T07:25:43.996Z,6800.00
2017-09-23T07:26:43.995Z,6832.00
2017-09-23T07:27:43.994Z,6748.00
2017-09-23T07:28:43.992Z,6676.00
2017-09-23T07:29:43.989Z,6736.00
2017-09-23T07:30:43.990Z,6740.00
2017-09-23T07:31:43.989Z,6712.00
2017-09-23T07:32:43.986Z,6692.00
2017-09-23T07:33:43.988Z,6652.00
2017-09-23T07:34:43.985Z,6680.00
2017-09-23T07:35:43.984Z,6692.00
2017-09-23T07:36:43.983Z,6684.00
2017-09-23T07:37:43.982Z,6732.00
2017-09-23T07:38:43.982Z,6800.00
2017-09-23T07:39:43.980Z,6796.00
2017-09-23T07:40:43.978Z,6980.00
2017-09-23T07:41:43.977Z,7012.00
2017-09-23T07:42:43.977Z,6996.00
2017-09-23T07:43:43.976Z,7096.00
2017-09-23T07:44:43.973Z,7024.00
2017-09-23T07:45:43.973Z,6944.00
2017-09-23T07:46:43.973Z,7112.00
2017-09-23T07:47:43.972Z,7252.00
2017-09-23T07:48:43.970Z,7444.00
2017-09-23T07:49:43.969Z,7560.00
2017-09-23T07:50:43.968Z,7624.00
2017-09-23T07:51:43.968Z,7256.00
2017-09-23T07:52:43.964Z,7412.00
2017-09-23T07:53:43.970Z,7588.00
2017-09-23T07:54:43.963Z,8280.00
2017-09-23T07:55:43.963Z,7984.00
2017-09-23T07:56:43.964Z,8168.00
2017-09-23T07:57:43.960Z,8648.00
2017-09-23T07:58:43.958Z,8900.00
2017-09-23T07:59:43.958Z,9268.00
2017-09-23T08:00:43.957Z,9592.00
2017-09-23T08:01:43.956Z,10024.00
2017-09-23T08:02:43.955Z,9828.00
2017-09-23T08:03:43.958Z,8828.00
2017-09-23T08:04:43.955Z,8860.00
2017-09-23T08:05:43.953Z,8852.00
2017-09-23T08:06:43.953Z,9484.00
2017-09-23T08:07:43.953Z,9844.00
2017-09-23T08:08:43.952Z,10312.00
2017-09-23T08:09:43.953Z,10492.00
2017-09-23T08:10:43.950Z,10192.00
2017-09-23T08:11:43.951Z,10348.00
2017-09-23T08:12:43.950Z,10540.00
2017-09-23T08:13:43.950Z,10568.00
2017-09-23T08:14:43.951Z,10568.00
2017-09-23T08:15:43.953Z,10588.00
2017-09-23T08:16:43.951Z,9688.00
2017-09-23T08:17:43.957Z,9372.00
2017-09-23T08:18:43.951Z,8904.00
2017-09-23T08:19:43.952Z,8180.00
2017-09-23T08:20:43.950Z,8396.00
2017-09-23T08:21:43.950Z,9104.00
2017-09-23T08:22:43.951Z,9244.00
2017-09-23T08:23:43.951Z,9480.00
2017-09-23T08:24:43.952Z,9500.00
2017-09-23T08:25:43.949Z,8992.00
2017-09-23T08:26:43.964Z,9276.00
2017-09-23T08:27:43.953Z,9104.00
2017-09-23T08:28:43.953Z,9484.00
2017-09-23T08:29:43.954Z,9304.00
2017-09-23T08:30:43.958Z,8808.00
2017-09-23T08:31:43.954Z,9324.00
2017-09-23T08:32:43.954Z,10044.00
2017-09-23T08:33:43.954Z,10292.00
2017-09-23T08:34:43.955Z,10328.00
2017-09-23T08:35:43.957Z,10508.00
2017-09-23T08:36:43.955Z,10876.00
2017-09-23T08:37:43.956Z,10676.00
2017-09-23T08:38:43.958Z,10788.00
2017-09-23T08:39:43.958Z,9956.00
2017-09-23T08:40:43.957Z,10784.00
2017-09-23T08:41:43.959Z,12084.00
2017-09-23T08:42:43.960Z,12564.00
2017-09-23T08:43:43.961Z,13240.00
2017-09-23T08:44:43.961Z,14000.00
2017-09-23T08:45:43.963Z,12672.00
2017-09-23T08:46:43.962Z,9936.00
2017-09-23T08:47:43.964Z,8972.00
2017-09-23T08:48:43.965Z,8972.00
2017-09-23T08:49:43.966Z,9460.00
2017-09-23T08:50:43.968Z,10316.00
2017-09-23T08:51:43.969Z,11064.00
2017-09-23T08:52:43.969Z,9148.00
2017-09-23T08:53:43.971Z,14928.00
2017-09-23T08:54:43.973Z,19072.00
2017-09-23T08:55:43.975Z,9404.00
2017-09-23T08:56:43.976Z,9828.00
2017-09-23T08:57:43.976Z,10916.00
2017-09-23T08:58:43.980Z,14928.00
2017-09-23T08:59:43.982Z,10604.00
2017-09-23T09:00:43.982Z,9208.00
2017-09-23T09:01:43.982Z,7996.00
2017-09-23T09:02:43.993Z,6656.00
2017-09-23T09:03:43.988Z,5692.00
2017-09-23T09:04:43.989Z,5164.00
2017-09-23T09:05:43.991Z,4832.00
2017-09-23T09:06:43.993Z,4604.00
2017-09-23T09:07:43.996Z,4372.00
2017-09-23T09:08:43.997Z,4172.00
2017-09-23T09:09:43.999Z,4032.00
2017-09-23T09:10:44.003Z,3964.00
2017-09-23T09:11:44.003Z,3964.00
2017-09-23T09:12:44.005Z,4124.00
2017-09-23T09:13:44.006Z,4440.00
2017-09-23T09:14:44.009Z,4676.00
2017-09-23T09:15:44.011Z,4940.00
2017-09-23T09:16:44.012Z,5340.00
2017-09-23T09:17:44.020Z,5832.00
2017-09-23T09:18:44.016Z,6196.00
2017-09-23T09:19:44.017Z,6492.00
2017-09-23T09:20:44.019Z,6532.00
2017-09-23T09:21:44.019Z,6332.00
2017-09-23T09:22:44.022Z,5960.00
2017-09-23T09:23:44.022Z,5600.00
2017-09-23T09:24:44.024Z,5356.00
2017-09-23T09:25:44.025Z,5168.00
2017-09-23T09:26:44.028Z,4964.00
2017-09-23T09:27:44.028Z,4876.00
2017-09-23T09:28:44.034Z,4888.00
2017-09-23T09:29:44.030Z,4956.00
2017-09-23T09:30:44.032Z,5004.00
2017-09-23T09:31:44.034Z,4924.00
2017-09-23T09:32:44.035Z,4824.00
2017-09-23T09:33:44.040Z,4716.00
2017-09-23T09:34:44.037Z,4612.00
2017-09-23T09:35:44.039Z,4572.00
2017-09-23T09:36:44.038Z,4524.00
2017-09-23T09:37:44.041Z,4496.00
2017-09-23T09:38:44.041Z,4568.00
2017-09-23T09:39:44.044Z,4688.00
2017-09-23T09:40:44.044Z,4836.00
2017-09-23T09:41:44.046Z,5016.00
2017-09-23T09:42:44.048Z,5176.00
2017-09-23T09:43:44.048Z,5448.00
2017-09-23T09:44:44.049Z,5800.00
2017-09-23T09:45:44.051Z,6220.00
2017-09-23T09:46:44.052Z,6748.00
2017-09-23T09:47:44.055Z,7304.00
2017-09-23T09:48:44.053Z,7924.00
2017-09-23T09:49:44.053Z,8528.00
2017-09-23T09:50:44.056Z,9000.00
2017-09-23T09:51:44.057Z,9288.00
2017-09-23T09:52:44.059Z,9456.00
2017-09-23T09:53:44.059Z,9516.00
2017-09-23T09:54:44.061Z,9544.00
2017-09-23T09:55:44.062Z,9700.00
2017-09-23T09:56:44.070Z,9764.00
2017-09-23T09:57:44.065Z,9588.00
2017-09-23T09:58:44.067Z,9588.00
2017-09-23T09:59:44.069Z,9208.00
2017-09-23T10:00:44.069Z,8696.00
2017-09-23T10:01:44.070Z,8608.00
2017-09-23T10:02:44.073Z,9356.00
2017-09-23T10:03:44.075Z,11468.00
2017-09-23T10:04:44.084Z,10344.00
2017-09-23T10:05:44.079Z,11584.00
2017-09-23T10:06:44.080Z,12508.00
2017-09-23T10:07:44.083Z,13728.00
2017-09-23T10:08:44.083Z,13812.00
2017-09-23T10:09:44.085Z,17472.00
2017-09-23T10:10:44.089Z,34848.00
2017-09-23T10:11:44.092Z,13096.00
2017-09-23T10:12:44.092Z,11880.00
2017-09-23T10:13:44.094Z,10132.00
2017-09-23T10:14:44.097Z,10148.00
2017-09-23T10:15:44.100Z,10088.00
2017-09-23T10:16:44.101Z,10148.00
2017-09-23T10:17:44.104Z,10156.00
2017-09-23T10:18:44.107Z,9944.00
2017-09-23T10:19:44.112Z,9620.00
2017-09-23T10:20:44.112Z,9220.00
2017-09-23T10:21:44.115Z,8820.00
2017-09-23T10:22:44.120Z,8504.00
2017-09-23T10:23:44.121Z,8332.00
2017-09-23T10:24:44.122Z,8308.00
2017-09-23T10:25:44.126Z,8172.00
2017-09-23T10:26:44.130Z,8048.00
2017-09-23T10:27:44.139Z,8064.00
2017-09-23T10:28:44.134Z,8204.00
2017-09-23T10:29:44.138Z,8364.00
2017-09-23T10:30:44.140Z,8368.00
2017-09-23T10:31:44.142Z,8408.00
2017-09-23T10:32:44.147Z,8344.00
2017-09-23T10:33:44.147Z,7992.00
2017-09-23T10:34:44.152Z,7604.00
2017-09-23T10:35:44.154Z,7408.00
2017-09-23T10:36:44.155Z,7300.00
2017-09-23T10:37:44.159Z,7324.00
2017-09-23T10:38:44.162Z,7324.00
2017-09-23T10:39:44.165Z,7268.00
2017-09-23T10:40:44.169Z,7096.00
2017-09-23T10:41:44.169Z,7128.00
2017-09-23T10:42:44.172Z,7336.00
2017-09-23T10:43:44.176Z,7684.00
2017-09-23T10:44:44.180Z,8136.00
2017-09-23T10:45:44.181Z,8548.00
2017-09-23T10:46:44.183Z,9000.00
2017-09-23T10:47:44.186Z,9224.00
2017-09-23T10:48:44.191Z,9324.00
2017-09-23T10:49:44.191Z,9548.00
2017-09-23T10:50:44.194Z,9772.00
2017-09-23T10:51:44.196Z,10084.00
2017-09-23T10:52:44.198Z,10272.00
2017-09-23T10:53:44.200Z,10248.00
2017-09-23T10:54:44.204Z,10108.00
2017-09-23T10:55:44.207Z,10036.00
2017-09-23T10:56:44.209Z,9932.00
2017-09-23T10:57:44.211Z,9680.00
2017-09-23T10:58:44.216Z,9220.00
2017-09-23T10:59:44.247Z,8888.00
2017-09-23T11:00:44.221Z,8780.00
2017-09-23T11:01:44.225Z,9112.00
2017-09-23T11:02:44.226Z,9440.00
2017-09-23T11:03:44.230Z,9552.00
2017-09-23T11:04:44.236Z,9304.00
2017-09-23T11:05:44.238Z,8944.00
2017-09-23T11:06:44.241Z,8540.00
2017-09-23T11:07:44.243Z,8204.00
2017-09-23T11:08:44.251Z,7840.00
2017-09-23T11:09:44.245Z,7520.00
2017-09-23T11:10:44.249Z,7312.00
2017-09-23T11:11:44.252Z,7188.00
2017-09-23T11:12:44.255Z,7136.00
2017-09-23T11:13:44.259Z,7160.00
2017-09-23T11:14:44.261Z,7184.00
2017-09-23T11:15:44.265Z,7088.00
2017-09-23T11:16:44.267Z,6884.00
2017-09-23T11:17:44.270Z,6812.00
2017-09-23T11:18:44.272Z,6940.00
2017-09-23T11:19:44.277Z,7288.00
2017-09-23T11:20:44.278Z,7740.00
2017-09-23T11:21:44.282Z,8148.00
2017-09-23T11:22:44.284Z,8260.00
2017-09-23T11:23:44.287Z,8124.00
2017-09-23T11:24:44.290Z,7984.00
2017-09-23T11:25:44.293Z,7928.00
2017-09-23T11:26:44.296Z,7864.00
2017-09-23T11:27:44.300Z,7692.00
2017-09-23T11:28:44.301Z,7328.00
2017-09-23T11:29:44.305Z,6900.00
2017-09-23T11:30:44.309Z,6552.00
2017-09-23T11:31:44.313Z,6328.00
2017-09-23T11:32:44.313Z,6240.00
2017-09-23T11:33:44.318Z,6272.00
2017-09-23T11:34:44.320Z,6400.00
2017-09-23T11:35:44.325Z,6636.00
2017-09-23T11:36:44.325Z,6912.00
2017-09-23T11:37:44.328Z,7168.00
2017-09-23T11:38:44.331Z,7488.00
2017-09-23T11:39:44.335Z,8008.00
2017-09-23T11:40:44.338Z,8600.00
2017-09-23T11:41:44.339Z,9216.00
2017-09-23T11:42:44.345Z,9796.00
2017-09-23T11:43:44.347Z,10372.00
2017-09-23T11:44:44.349Z,10992.00
2017-09-23T11:45:44.352Z,12020.00
2017-09-23T11:46:44.356Z,12708.00
2017-09-23T11:47:44.360Z,12720.00
2017-09-23T11:48:44.361Z,12372.00
2017-09-23T11:49:44.366Z,11688.00
2017-09-23T11:50:44.369Z,9892.00
2017-09-23T11:51:44.371Z,8964.00
2017-09-23T11:52:44.376Z,8088.00
2017-09-23T11:53:44.378Z,7436.00
2017-09-23T11:54:44.381Z,7028.00
2017-09-23T11:55:44.384Z,6792.00
2017-09-23T11:56:44.387Z,6700.00
2017-09-23T11:57:44.390Z,6936.00
2017-09-23T11:58:44.395Z,7136.00
2017-09-23T11:59:44.403Z,7260.00
2017-09-23T12:00:44.400Z,7380.00
2017-09-23T12:01:44.404Z,7188.00
2017-09-23T12:02:44.407Z,6988.00
2017-09-23T12:03:44.411Z,6864.00
2017-09-23T12:04:44.413Z,6880.00
2017-09-23T12:05:44.416Z,7064.00
2017-09-23T12:06:44.419Z,7288.00
2017-09-23T12:07:44.423Z,7524.00
2017-09-23T12:08:44.426Z,7572.00
2017-09-23T12:09:44.428Z,7416.00
2017-09-23T12:10:44.431Z,7204.00
2017-09-23T12:11:44.436Z,7024.00
2017-09-23T12:12:44.436Z,7012.00
2017-09-23T12:13:44.441Z,7104.00
2017-09-23T12:14:44.445Z,7260.00
2017-09-23T12:15:44.447Z,7324.00
2017-09-23T12:16:44.476Z,7216.00
2017-09-23T12:17:44.452Z,7104.00
2017-09-23T12:18:44.455Z,6980.00
2017-09-23T12:19:44.457Z,6976.00
2017-09-23T12:20:44.461Z,6920.00
2017-09-23T12:21:44.463Z,6772.00
2017-09-23T12:22:44.467Z,6600.00
2017-09-23T12:23:44.470Z,6444.00
2017-09-23T12:24:44.472Z,6292.00
2017-09-23T12:25:44.476Z,6192.00
2017-09-23T12:26:44.479Z,6164.00
2017-09-23T12:27:44.483Z,6128.00
2017-09-23T12:28:44.485Z,6092.00
2017-09-23T12:29:44.488Z,6024.00
2017-09-23T12:30:44.492Z,5972.00
2017-09-23T12:31:44.495Z,5976.00
2017-09-23T12:32:44.497Z,5972.00
2017-09-23T12:33:44.500Z,5992.00
2017-09-23T12:34:44.503Z,6000.00
2017-09-23T12:35:44.506Z,5964.00
2017-09-23T12:36:44.509Z,5964.00
2017-09-23T12:37:44.513Z,5952.00
2017-09-23T12:38:44.515Z,5824.00
2017-09-23T12:39:44.520Z,5816.00
2017-09-23T12:40:44.520Z,5940.00
2017-09-23T12:41:44.525Z,6320.00
2017-09-23T12:42:44.528Z,6976.00
2017-09-23T12:43:44.531Z,7740.00
2017-09-23T12:44:44.533Z,7120.00
2017-09-23T12:45:44.537Z,6456.00
2017-09-23T12:46:44.540Z,6224.00
2017-09-23T12:47:44.541Z,6124.00
2017-09-23T12:48:44.546Z,6736.00
2017-09-23T12:49:44.548Z,6816.00
2017-09-23T12:50:44.551Z,6608.00
2017-09-23T12:51:44.556Z,6512.00
2017-09-23T12:52:44.557Z,6264.00
2017-09-23T12:53:44.562Z,5528.00
2017-09-23T12:54:44.603Z,5656.00
2017-09-23T12:55:44.567Z,5624.00
2017-09-23T12:56:44.569Z,5548.00
2017-09-23T12:57:44.572Z,5352.00
2017-09-23T12:58:44.575Z,5160.00
2017-09-23T12:59:44.576Z,5172.00
2017-09-23T13:00:44.580Z,5692.00
2017-09-23T13:01:44.583Z,5492.00
2017-09-23T13:02:44.586Z,5764.00
2017-09-23T13:03:44.589Z,5656.00
2017-09-23T13:04:44.592Z,5284.00
2017-09-23T13:05:44.594Z,4740.00
2017-09-23T13:06:44.598Z,4468.00
2017-09-23T13:07:44.599Z,4284.00
2017-09-23T13:08:44.601Z,4456.00
2017-09-23T13:09:44.603Z,5072.00
2017-09-23T13:10:44.611Z,4348.00
2017-09-23T13:11:44.611Z,4344.00
2017-09-23T13:12:44.613Z,4352.00
2017-09-23T13:13:44.615Z,4424.00
2017-09-23T13:14:44.616Z,4440.00
2017-09-23T13:15:44.622Z,4644.00